Time;durP1;ratioP1;P1;durP2;ratioP2;P2;SDS_P1;SDS_P2;PMS_P1;PMS_P2;Temp;Humidity;BMP_temperature;BMP_pressure;BME280_temperature;BME280_humidity;BME280_pressure;Samples;Min_cycle;Max_cycle;Signal;HPM_P1;HPM_P2
2021/12/25 00:02:15;;;;;;;11.68;4.50;;;0.30;99.90;;;;;;12581947;28;20087;-39
2021/12/25 00:08:23;;;;;;;8.73;4.90;;;0.30;99.90;;;;;;12577897;28;20344;-37
2021/12/25 00:14:25;;;;;;;6.40;3.97;;;0.30;99.90;;;;;;12579896;28;20139;-37
2021/12/25 00:20:27;;;;;;;8.15;3.67;;;0.30;99.90;;;;;;12582926;28;20148;-38
2021/12/25 00:38:48;;;;;;;4.07;1.90;;;0.10;99.90;;;;;;12582691;28;20084;-37
2021/12/25 00:44:50;;;;;;;4.75;1.75;;;0.10;99.90;;;;;;12580236;28;20052;-37
2021/12/25 00:50:52;;;;;;;3.22;1.35;;;-0.10;99.90;;;;;;12580627;28;20052;-38
2021/12/25 00:56:54;;;;;;;4.93;1.30;;;-0.20;99.90;;;;;;12551952;28;20613;-37
2021/12/25 01:02:56;;;;;;;6.18;1.25;;;-0.40;99.90;;;;;;12579549;28;20415;-36
2021/12/25 01:08:58;;;;;;;3.20;1.13;;;-0.30;99.90;;;;;;12580512;28;20505;-38
2021/12/25 01:15:02;;;;;;;4.68;1.40;;;-0.40;99.90;;;;;;12576579;28;20076;-39
2021/12/25 01:21:42;;;;;;;4.40;1.10;;;-0.40;99.90;;;;;;12579963;28;20131;-37
2021/12/25 01:34:09;;;;;;;;;;;-0.40;99.90;;;;;;12577832;28;20044;-36
2021/12/25 01:52:47;;;;;;;2.55;1.00;;;-0.60;99.90;;;;;;12584401;28;20527;-38
2021/12/25 01:58:49;;;;;;;3.13;0.85;;;-0.70;99.90;;;;;;12587438;28;20123;-36
2021/12/25 02:04:52;;;;;;;1.73;0.93;;;-0.80;99.90;;;;;;12584021;28;20118;-38
2021/12/25 02:10:55;;;;;;;4.65;0.75;;;-0.90;99.90;;;;;;12589360;28;20562;-38
2021/12/25 02:17:13;;;;;;;3.58;0.85;;;-0.90;99.90;;;;;;12587459;28;20460;-36
2021/12/25 02:23:21;;;;;;;2.58;1.10;;;-0.90;99.90;;;;;;12583327;28;20276;-38
2021/12/25 02:29:23;;;;;;;2.38;0.90;;;-1.00;99.90;;;;;;12587665;28;20131;-38
2021/12/25 02:35:27;;;;;;;4.43;1.20;;;-1.00;99.90;;;;;;12585290;28;20051;-38
2021/12/25 02:41:29;;;;;;;3.17;1.10;;;-1.10;99.90;;;;;;12583969;28;20064;-36
2021/12/25 02:47:33;;;;;;;3.35;0.80;;;-1.00;99.90;;;;;;12582344;28;20090;-38
2021/12/25 02:53:36;;;;;;;4.22;1.20;;;-1.00;99.90;;;;;;12587314;28;20048;-38
2021/12/25 02:59:38;;;;;;;6.22;1.30;;;-1.00;99.90;;;;;;12585743;28;20052;-38
2021/12/25 03:05:40;;;;;;;2.75;1.40;;;-1.00;99.90;;;;;;12586414;28;20622;-38
2021/12/25 03:11:42;;;;;;;3.15;1.50;;;-1.00;99.90;;;;;;12584117;28;20055;-36
2021/12/25 03:17:45;;;;;;;4.30;2.08;;;-1.00;99.90;;;;;;12585112;28;20127;-36
2021/12/25 03:23:49;;;;;;;4.60;2.35;;;-1.10;99.90;;;;;;12580149;28;20140;-37
2021/12/25 03:29:51;;;;;;;4.00;2.30;;;-1.20;99.90;;;;;;12585800;28;20089;-36
2021/12/25 03:35:53;;;;;;;3.00;1.73;;;-1.20;99.90;;;;;;12579991;28;20136;-37
2021/12/25 03:41:57;;;;;;;3.72;1.60;;;-1.20;99.90;;;;;;12582295;28;20051;-37
2021/12/25 03:48:12;;;;;;;3.05;1.35;;;-1.30;99.90;;;;;;12583636;28;20132;-37
2021/12/25 04:00:36;;;;;;;4.00;1.02;;;-1.40;99.90;;;;;;12582642;28;19931;-36
2021/12/25 04:06:46;;;;;;;1.88;0.60;;;-1.50;99.90;;;;;;12581657;28;20044;-38
2021/12/25 04:12:50;;;;;;;6.00;0.80;;;-1.60;99.90;;;;;;12585294;28;20051;-39
2021/12/25 04:18:53;;;;;;;2.08;0.73;;;-1.70;99.90;;;;;;12582149;28;20091;-36
2021/12/25 04:24:55;;;;;;;2.30;0.50;;;-1.70;99.90;;;;;;12584453;28;20461;-38
2021/12/25 05:08:57;;;;;;;1.65;0.40;;;-2.20;99.90;;;;;;12583588;28;20131;-39
2021/12/25 05:14:59;;;;;;;1.58;0.63;;;-2.20;99.90;;;;;;12582277;28;20071;-39
2021/12/25 05:21:02;;;;;;;2.42;0.60;;;-2.30;99.90;;;;;;12594406;28;20191;-37
2021/12/25 05:27:05;;;;;;;1.52;0.68;;;-2.40;99.90;;;;;;12587831;28;20144;-38
2021/12/25 05:33:07;;;;;;;1.42;0.40;;;-2.50;99.90;;;;;;12510588;28;20413;-37
2021/12/25 05:39:12;;;;;;;1.52;0.60;;;-2.60;99.90;;;;;;12492108;28;20088;-38
2021/12/25 05:45:14;;;;;;;2.13;0.45;;;-2.60;99.90;;;;;;12487010;28;20049;-37
2021/12/25 05:51:18;;;;;;;1.85;0.60;;;-2.70;99.90;;;;;;12484690;28;20054;-39
2021/12/25 05:57:20;;;;;;;1.63;0.60;;;-2.80;99.90;;;;;;12490713;28;20131;-37
2021/12/25 06:03:22;;;;;;;3.00;0.73;;;-2.90;99.90;;;;;;12490222;28;20128;-38
2021/12/25 06:16:50;;;;;;;;;;;-2.90;99.90;;;;;;12475336;23;20096;-84
2021/12/25 06:22:53;;;;;;;2.03;0.52;;;-2.80;99.90;;;;;;12412921;28;19925;-85
2021/12/25 06:28:56;;;;;;;1.92;0.50;;;-3.00;99.90;;;;;;12420123;28;20049;-85
2021/12/25 06:34:58;;;;;;;1.63;0.30;;;-3.00;99.90;;;;;;12418523;28;20110;-85
2021/12/25 06:41:00;;;;;;;3.95;0.40;;;-3.10;99.90;;;;;;12420250;28;20561;-84
2021/12/25 06:47:03;;;;;;;1.60;0.40;;;-3.10;99.90;;;;;;12425332;28;20555;-84
2021/12/25 06:53:05;;;;;;;2.55;0.40;;;-3.20;99.90;;;;;;12431866;28;20123;-85
2021/12/25 06:59:07;;;;;;;2.65;0.50;;;-3.20;99.90;;;;;;12421301;28;20077;-84
2021/12/25 07:05:09;;;;;;;1.65;0.50;;;-3.20;99.90;;;;;;12423293;28;20042;-85
2021/12/25 07:11:10;;;;;;;4.75;0.70;;;-3.30;99.90;;;;;;12430275;28;20045;-85
2021/12/25 07:17:13;;;;;;;4.03;0.85;;;-3.30;99.90;;;;;;12415198;28;20049;-84
2021/12/25 07:23:16;;;;;;;1.05;0.60;;;-3.40;99.90;;;;;;12411332;28;20168;-85
2021/12/25 07:29:17;;;;;;;2.33;0.70;;;-3.30;99.90;;;;;;12429095;28;20569;-84
2021/12/25 07:35:20;;;;;;;2.35;0.60;;;-3.40;99.90;;;;;;12407248;28;20136;-85
2021/12/25 07:41:22;;;;;;;1.30;0.50;;;-3.40;99.90;;;;;;12407266;28;20119;-85
2021/12/25 07:47:23;;;;;;;3.00;0.57;;;-3.40;99.90;;;;;;12421083;28;20293;-85
2021/12/25 07:53:25;;;;;;;2.72;0.80;;;-3.30;99.90;;;;;;12441938;28;20104;-85
2021/12/25 07:59:27;;;;;;;2.60;0.63;;;-3.40;99.90;;;;;;12419977;28;20699;-85
2021/12/25 08:05:29;;;;;;;4.57;0.80;;;-3.30;99.90;;;;;;12410958;28;20054;-85
2021/12/25 08:11:32;;;;;;;2.53;0.70;;;-3.40;99.90;;;;;;12425249;28;20080;-85
2021/12/25 08:17:33;;;;;;;3.28;0.60;;;-3.30;99.90;;;;;;12409343;28;20106;-84
2021/12/25 08:23:37;;;;;;;1.83;0.80;;;-3.30;99.90;;;;;;12409675;28;20056;-85
2021/12/25 08:29:39;;;;;;;4.40;0.90;;;-3.10;99.90;;;;;;12411546;28;20117;-85
2021/12/25 08:35:42;;;;;;;2.40;0.82;;;-3.20;99.90;;;;;;12432318;28;20052;-85
2021/12/25 08:41:44;;;;;;;2.72;0.90;;;-3.00;99.90;;;;;;12436064;28;20042;-85
2021/12/25 08:47:46;;;;;;;4.30;0.63;;;-2.90;99.90;;;;;;12408017;28;20081;-84
2021/12/25 08:53:48;;;;;;;2.97;0.88;;;-2.90;99.90;;;;;;12438332;28;21251;-84
2021/12/25 08:59:54;;;;;;;1.90;0.60;;;-2.90;99.90;;;;;;12442239;28;20046;-85
2021/12/25 09:05:58;;;;;;;2.20;0.75;;;-2.90;99.90;;;;;;12429251;28;20145;-85
2021/12/25 09:12:00;;;;;;;5.28;1.02;;;-2.70;99.90;;;;;;12427581;28;20104;-85
2021/12/25 09:18:02;;;;;;;3.72;0.80;;;-2.90;99.90;;;;;;12428540;28;20058;-84
2021/12/25 09:24:04;;;;;;;2.22;0.60;;;-2.90;99.90;;;;;;12430923;28;20507;-84
2021/12/25 09:30:07;;;;;;;1.90;0.80;;;-2.90;99.90;;;;;;12434859;28;20348;-84
2021/12/25 09:36:08;;;;;;;6.10;0.90;;;-3.00;99.90;;;;;;12441839;28;20060;-85
2021/12/25 09:42:10;;;;;;;3.45;1.20;;;-3.00;99.90;;;;;;12428110;28;20046;-84
2021/12/25 09:48:12;;;;;;;2.15;0.70;;;-2.90;99.90;;;;;;12426907;28;20050;-85
2021/12/25 09:54:16;;;;;;;2.08;0.95;;;-3.00;99.90;;;;;;12440858;28;20536;-84
2021/12/25 10:00:21;;;;;;;1.50;0.70;;;-2.80;99.90;;;;;;12416473;28;20464;-84
2021/12/25 10:06:50;;;;;;;2.70;0.95;;;-2.80;99.90;;;;;;12420009;28;20558;-84
2021/12/25 10:12:52;;;;;;;3.78;0.98;;;-2.80;99.90;;;;;;12424554;28;20103;-84
2021/12/25 10:19:11;;;;;;;2.35;0.82;;;-2.90;99.90;;;;;;12428403;28;20719;-84
2021/12/25 10:25:15;;;;;;;2.85;0.98;;;-3.00;99.90;;;;;;12425077;28;20137;-84
2021/12/25 10:31:28;;;;;;;4.38;1.00;;;-2.80;99.90;;;;;;12418590;28;20057;-85
2021/12/25 10:37:39;;;;;;;;;;;-2.60;99.90;;;;;;12435523;28;20049;-85
2021/12/25 10:43:42;;;;;;;6.97;1.00;;;-2.50;99.90;;;;;;12435004;28;19974;-84
2021/12/25 10:49:49;;;;;;;5.43;0.75;;;-2.40;99.90;;;;;;12418282;28;20667;-85
2021/12/25 10:55:51;;;;;;;4.40;0.88;;;-2.20;99.90;;;;;;12430965;28;20041;-85
2021/12/25 11:01:53;;;;;;;2.05;0.40;;;-2.10;99.90;;;;;;12416970;28;20091;-85
2021/12/25 11:08:17;;;;;;;3.10;0.50;;;-2.10;99.90;;;;;;12415335;28;20050;-85
2021/12/25 11:14:22;;;;;;;2.45;0.60;;;-1.90;99.90;;;;;;12424544;28;20058;-84
2021/12/25 11:20:35;;;;;;;3.92;0.75;;;-1.70;99.90;;;;;;12424560;28;20121;-85
2021/12/25 11:26:37;;;;;;;2.10;0.57;;;-1.60;99.90;;;;;;12413952;28;20049;-84
2021/12/25 11:32:39;;;;;;;1.63;0.40;;;-1.80;99.90;;;;;;12419547;28;20049;-85
2021/12/25 11:38:41;;;;;;;3.03;0.60;;;-2.10;99.90;;;;;;12412427;28;20594;-83
2021/12/25 11:44:48;;;;;;;1.80;0.60;;;-2.00;99.90;;;;;;12428922;28;20042;-84
2021/12/25 11:50:52;;;;;;;2.17;0.60;;;-1.80;99.90;;;;;;12416740;28;20449;-83
2021/12/25 12:03:47;;;;;;;1.95;0.75;;;-1.60;99.90;;;;;;12417834;28;20168;-84
2021/12/25 12:09:53;;;;;;;2.53;0.40;;;-1.40;99.90;;;;;;12431692;28;20050;-85
2021/12/25 12:16:00;;;;;;;2.58;0.50;;;-1.60;99.90;;;;;;12430853;28;20069;-84
2021/12/25 12:28:52;;;;;;;3.33;0.85;;;-1.60;99.90;;;;;;12429997;28;20184;-84
2021/12/25 12:34:54;;;;;;;2.53;0.57;;;-1.70;99.90;;;;;;12414536;28;20091;-85
2021/12/25 12:41:10;;;;;;;2.28;0.40;;;-1.90;99.90;;;;;;12419244;28;20129;-85
2021/12/25 12:47:18;;;;;;;1.25;0.35;;;-1.80;99.90;;;;;;12427274;28;20550;-86
2021/12/25 12:53:21;;;;;;;2.28;0.90;;;-1.90;99.90;;;;;;12461368;28;20469;-84
2021/12/25 12:59:23;;;;;;;3.60;0.65;;;-1.90;99.90;;;;;;12426115;28;20129;-85
2021/12/25 13:05:38;;;;;;;6.45;1.13;;;-1.80;99.90;;;;;;12439656;28;20137;-84
2021/12/25 13:11:57;;;;;;;2.08;0.70;;;-1.80;99.90;;;;;;12441093;28;20137;-84
2021/12/25 13:18:02;;;;;;;3.00;0.70;;;-1.80;99.90;;;;;;12445477;28;20045;-84
2021/12/25 13:24:09;;;;;;;2.75;0.80;;;-1.80;99.90;;;;;;12435962;28;20248;-84
2021/12/25 13:30:17;;;;;;;5.03;1.10;;;-1.70;99.90;;;;;;12428475;28;20126;-85
2021/12/25 13:36:28;;;;;;;1.65;0.52;;;-1.90;99.90;;;;;;12453846;28;20144;-85
2021/12/25 13:42:30;;;;;;;3.60;0.55;;;-2.00;99.90;;;;;;12444615;28;20069;-84
2021/12/25 13:48:39;;;;;;;2.65;0.93;;;-2.00;99.90;;;;;;12432843;28;20095;-83
2021/12/25 13:54:44;;;;;;;1.15;0.60;;;-2.10;99.90;;;;;;12446396;28;20125;-85
2021/12/25 14:00:48;;;;;;;;;;;-2.10;99.90;;;;;;12447595;28;20101;-84
2021/12/25 14:06:50;;;;;;;1.23;0.55;;;-2.20;99.90;;;;;;12430656;28;20282;-85
2021/12/25 14:12:58;;;;;;;3.78;0.90;;;-2.20;99.90;;;;;;12452774;28;20061;-85
2021/12/25 14:19:07;;;;;;;2.55;0.70;;;-2.30;99.90;;;;;;12426129;28;20054;-83
2021/12/25 14:25:20;;;;;;;2.03;0.70;;;-2.30;99.90;;;;;;12414909;28;20041;-84
2021/12/25 14:31:22;;;;;;;2.97;0.82;;;-2.30;99.90;;;;;;12412394;28;20099;-85
2021/12/25 14:37:37;;;;;;;3.10;0.80;;;-2.40;99.90;;;;;;12418072;28;20499;-84
2021/12/25 14:43:42;;;;;;;3.92;0.90;;;-2.40;99.90;;;;;;12437055;28;20041;-85
2021/12/25 14:49:47;;;;;;;2.30;0.70;;;-2.50;99.90;;;;;;12434587;28;20053;-85
2021/12/25 14:55:58;;;;;;;1.48;0.88;;;-2.60;99.90;;;;;;12429104;28;20050;-85
2021/12/25 15:02:00;;;;;;;2.95;1.00;;;-2.70;99.90;;;;;;12406315;28;20038;-84
2021/12/25 15:08:25;;;;;;;7.10;1.10;;;-2.70;99.90;;;;;;12425250;28;20418;-84
2021/12/25 15:14:30;;;;;;;4.05;1.05;;;-2.90;99.90;;;;;;12435360;28;20084;-84
2021/12/25 15:20:32;;;;;;;3.55;1.10;;;-3.00;99.90;;;;;;12415848;28;20268;-84
2021/12/25 15:26:46;;;;;;;5.35;1.73;;;-3.10;99.90;;;;;;12406205;28;20049;-84
2021/12/25 15:32:52;;;;;;;4.18;1.70;;;-3.20;99.90;;;;;;12406808;28;20091;-84
2021/12/25 15:38:55;;;;;;;3.33;1.13;;;-3.30;99.90;;;;;;12419546;28;20095;-84
2021/12/25 15:44:58;;;;;;;5.88;1.50;;;-3.40;99.90;;;;;;12449805;28;21435;-84
2021/12/25 15:51:01;;;;;;;5.90;1.45;;;-3.40;99.90;;;;;;12417526;28;20074;-85
2021/12/25 15:57:07;;;;;;;2.53;1.00;;;-3.50;99.90;;;;;;12429555;28;20105;-84
2021/12/25 16:03:10;;;;;;;2.92;1.13;;;-3.60;99.90;;;;;;12447171;28;20076;-84
2021/12/25 16:09:12;;;;;;;3.42;1.05;;;-3.60;99.90;;;;;;12453596;28;20050;-85
2021/12/25 16:15:16;;;;;;;2.83;1.30;;;-3.70;99.90;;;;;;12409735;28;20046;-84
2021/12/25 16:21:18;;;;;;;13.18;2.38;;;-3.80;99.90;;;;;;12413642;28;20460;-85
2021/12/25 16:27:20;;;;;;;4.03;1.30;;;-3.80;99.90;;;;;;12414974;28;20045;-85
2021/12/25 16:33:23;;;;;;;2.70;1.27;;;-3.90;99.90;;;;;;12412254;28;20115;-84
2021/12/25 16:39:25;;;;;;;5.30;1.50;;;-4.00;99.90;;;;;;12414328;28;20087;-84
2021/12/25 16:45:28;;;;;;;5.38;1.50;;;-4.00;99.90;;;;;;12416690;28;20099;-83
2021/12/25 16:51:30;;;;;;;5.63;1.75;;;-4.10;99.90;;;;;;12415386;28;20054;-84
2021/12/25 16:57:34;;;;;;;5.47;1.70;;;-4.10;99.90;;;;;;12413742;28;20058;-84
2021/12/25 17:03:37;;;;;;;;;;;-4.10;99.90;;;;;;12421542;28;20053;-84
2021/12/25 17:09:39;;;;;;;6.22;2.03;;;-4.20;99.90;;;;;;12429064;28;20350;-85
2021/12/25 17:15:46;;;;;;;8.60;2.05;;;-4.30;99.90;;;;;;12425659;28;20102;-84
2021/12/25 17:21:48;;;;;;;7.32;2.45;;;-4.30;99.90;;;;;;12412542;28;20560;-84
2021/12/25 17:27:50;;;;;;;5.32;2.00;;;-4.30;99.90;;;;;;12406632;28;20049;-84
2021/12/25 17:33:52;;;;;;;5.40;1.80;;;-4.30;99.90;;;;;;12422916;28;20537;-84
2021/12/25 17:39:54;;;;;;;3.28;1.65;;;-4.30;99.90;;;;;;12420490;28;20169;-84
2021/12/25 17:45:59;;;;;;;5.63;2.08;;;-4.30;99.90;;;;;;12400407;28;20052;-84
2021/12/25 17:52:02;;;;;;;4.63;1.80;;;-4.40;99.90;;;;;;12420966;28;20410;-84
2021/12/25 17:58:05;;;;;;;4.25;1.77;;;-4.40;99.90;;;;;;12420634;28;20119;-84
2021/12/25 18:04:06;;;;;;;5.03;1.42;;;-4.40;99.90;;;;;;12404497;28;20541;-84
2021/12/25 18:10:12;;;;;;;4.60;1.83;;;-4.50;99.90;;;;;;12420055;28;20223;-84
2021/12/25 18:16:14;;;;;;;4.00;1.52;;;-4.50;99.90;;;;;;12429304;28;20083;-84
2021/12/25 18:22:16;;;;;;;9.35;1.90;;;-4.60;99.90;;;;;;12418831;28;20167;-84
2021/12/25 18:28:19;;;;;;;4.28;2.03;;;-4.60;99.90;;;;;;12415189;28;20049;-84
2021/12/25 18:34:21;;;;;;;5.53;2.00;;;-4.70;99.90;;;;;;12432296;28;20058;-84
2021/12/25 18:40:24;;;;;;;3.75;1.60;;;-4.70;99.90;;;;;;12419774;28;20050;-84
2021/12/25 18:46:27;;;;;;;4.88;1.80;;;-4.70;99.90;;;;;;12417368;28;20484;-84
2021/12/25 18:52:29;;;;;;;3.90;1.83;;;-4.70;99.90;;;;;;12415880;28;20052;-85
2021/12/25 18:58:31;;;;;;;7.93;1.95;;;-4.80;99.90;;;;;;12413392;28;20061;-84
2021/12/25 19:04:33;;;;;;;4.18;1.95;;;-4.80;99.90;;;;;;12419132;28;20088;-84
2021/12/25 19:10:36;;;;;;;7.32;2.92;;;-4.90;99.90;;;;;;12428920;28;20084;-84
2021/12/25 19:16:38;;;;;;;6.63;2.08;;;-4.90;99.90;;;;;;12434369;28;20399;-84
2021/12/25 19:22:40;;;;;;;5.47;2.22;;;-5.00;99.90;;;;;;12415078;28;20077;-84
2021/12/25 19:28:42;;;;;;;5.30;1.92;;;-5.00;99.90;;;;;;12428147;28;20088;-84
2021/12/25 19:34:44;;;;;;;3.97;1.65;;;-5.00;99.90;;;;;;12430113;28;20145;-84
2021/12/25 19:40:47;;;;;;;3.67;1.50;;;-5.00;99.90;;;;;;12418148;28;20406;-83
2021/12/25 19:46:48;;;;;;;4.35;1.80;;;-5.10;99.90;;;;;;12417710;28;20103;-85
2021/12/25 19:52:52;;;;;;;3.85;1.30;;;-5.00;99.90;;;;;;12416121;28;20506;-85
2021/12/25 19:58:54;;;;;;;11.35;3.83;;;-5.00;99.90;;;;;;12419810;28;20046;-84
2021/12/25 20:04:56;;;;;;;7.40;2.45;;;-5.00;99.90;;;;;;12418786;28;20050;-84
2021/12/25 20:10:58;;;;;;;3.55;1.80;;;-5.10;99.90;;;;;;12418978;28;20191;-84
2021/12/25 20:17:00;;;;;;;3.65;1.70;;;-5.10;99.90;;;;;;12416237;28;20160;-84
2021/12/25 20:23:02;;;;;;;7.85;1.40;;;-5.20;99.90;;;;;;12416944;28;20615;-84
2021/12/25 20:29:04;;;;;;;3.00;1.30;;;-5.40;99.90;;;;;;12429081;28;20050;-84
2021/12/25 20:35:07;;;;;;;4.38;1.98;;;-5.40;99.90;;;;;;12409949;28;20057;-84
2021/12/25 20:41:10;;;;;;;5.68;1.95;;;-5.40;99.90;;;;;;12419350;28;20042;-84
2021/12/25 20:47:16;;;;;;;12.07;5.07;;;-5.40;99.90;;;;;;12428790;28;20049;-84
2021/12/25 20:53:19;;;;;;;9.57;3.17;;;-5.30;99.90;;;;;;12434284;28;20521;-84
2021/12/25 20:59:23;;;;;;;5.05;1.60;;;-5.40;99.90;;;;;;12430593;28;20046;-84
2021/12/25 21:05:26;;;;;;;6.95;2.45;;;-5.60;99.90;;;;;;12414052;28;20915;-85
2021/12/25 21:11:28;;;;;;;5.78;2.17;;;-5.60;99.90;;;;;;12415852;28;20490;-84
2021/12/25 21:17:31;;;;;;;6.75;2.85;;;-5.70;99.90;;;;;;12412330;28;20100;-84
2021/12/25 21:23:33;;;;;;;6.63;2.50;;;-5.80;99.90;;;;;;12417601;28;20125;-84
2021/12/25 21:29:35;;;;;;;6.65;2.03;;;-5.80;99.90;;;;;;12414453;28;20148;-85
2021/12/25 21:35:37;;;;;;;4.40;2.30;;;-5.90;99.90;;;;;;12410278;28;20066;-85
2021/12/25 21:41:39;;;;;;;8.10;2.45;;;-5.90;99.90;;;;;;12427712;28;20041;-85
2021/12/25 21:47:41;;;;;;;5.75;2.25;;;-6.00;99.90;;;;;;12416406;28;20077;-84
2021/12/25 21:53:43;;;;;;;6.85;2.25;;;-5.90;99.90;;;;;;12431612;28;20132;-84
2021/12/25 21:59:45;;;;;;;5.78;2.17;;;-5.90;99.90;;;;;;12418697;28;20128;-85
2021/12/25 22:05:47;;;;;;;4.55;1.80;;;-5.90;99.90;;;;;;12423749;28;20129;-85
2021/12/25 22:11:52;;;;;;;3.72;1.90;;;-6.00;99.90;;;;;;12418755;28;20057;-85
2021/12/25 22:17:55;;;;;;;5.80;2.40;;;-6.00;99.90;;;;;;12422734;28;20204;-85
2021/12/25 22:23:57;;;;;;;5.22;1.90;;;-6.10;99.90;;;;;;12420765;28;20064;-85
2021/12/25 22:29:59;;;;;;;7.15;2.17;;;-6.10;99.90;;;;;;12434101;28;20043;-84
2021/12/25 22:36:01;;;;;;;5.65;2.00;;;-6.10;99.90;;;;;;12419959;28;20050;-85
2021/12/25 22:42:04;;;;;;;6.63;2.58;;;-5.90;99.90;;;;;;12424533;28;20049;-85
2021/12/25 22:48:07;;;;;;;4.85;1.90;;;-6.10;99.90;;;;;;12412307;28;20050;-85
2021/12/25 22:54:09;;;;;;;5.03;1.85;;;-6.30;99.90;;;;;;12416067;28;20088;-85
2021/12/25 23:00:21;;;;;;;6.38;1.88;;;-6.30;99.90;;;;;;12410470;28;20953;-84
2021/12/25 23:06:25;;;;;;;5.13;2.00;;;-6.30;99.90;;;;;;12421959;28;20106;-85
2021/12/25 23:12:26;;;;;;;5.07;1.80;;;-6.20;99.90;;;;;;12423338;28;20059;-85
2021/12/25 23:18:29;;;;;;;4.07;1.60;;;-6.40;99.90;;;;;;12425405;28;20110;-85
2021/12/25 23:24:31;;;;;;;5.97;2.00;;;-6.40;99.90;;;;;;12409654;28;20042;-84
2021/12/25 23:30:34;;;;;;;6.13;1.98;;;-6.50;99.90;;;;;;12418211;28;20921;-85
2021/12/25 23:36:36;;;;;;;4.57;1.73;;;-6.50;99.90;;;;;;12417273;28;20413;-84
2021/12/25 23:42:43;;;;;;;5.03;1.80;;;-6.60;99.90;;;;;;12431308;28;20179;-85
2021/12/25 23:48:45;;;;;;;5.15;1.90;;;-6.60;99.90;;;;;;12433637;28;20200;-84
2021/12/25 23:54:48;;;;;;;5.32;2.28;;;-6.70;99.90;;;;;;12415578;28;20135;-84
